Time;durP1;ratioP1;P1;durP2;ratioP2;P2;SDS_P1;SDS_P2;PMS_P1;PMS_P2;Temp;Humidity;BMP_temperature;BMP_pressure;BME280_temperature;BME280_humidity;BME280_pressure;Samples;Min_cycle;Max_cycle;Signal;HPM_P1;HPM_P2
2022/03/25 00:02:15;;;;;;;21.13;11.23;;;;;;;;;;5088180;28;20053;-47
2022/03/25 00:04:41;;;;;;;23.05;11.48;;;;;;;;;;5085832;28;20031;-47
2022/03/25 00:07:08;;;;;;;23.55;10.93;;;;;;;;;;5084457;28;20024;-47
2022/03/25 00:09:34;;;;;;;21.55;10.30;;;;;;;;;;5088988;28;20039;-46
2022/03/25 00:12:01;;;;;;;21.05;10.95;;;;;;;;;;5092261;28;20023;-48
2022/03/25 00:14:27;;;;;;;19.20;10.57;;;;;;;;;;5092392;28;20020;-47
2022/03/25 00:16:53;;;;;;;23.50;11.27;;;;;;;;;;5087830;28;20069;-47
2022/03/25 00:19:19;;;;;;;21.05;10.25;;;;;;;;;;5090008;28;20024;-47
2022/03/25 00:21:45;;;;;;;22.60;12.02;;;;;;;;;;5092150;28;20024;-49
2022/03/25 00:24:11;;;;;;;21.60;10.98;;;;;;;;;;5089733;28;20035;-49
2022/03/25 00:26:37;;;;;;;21.17;10.60;;;;;;;;;;5092049;28;20035;-49
2022/03/25 00:29:03;;;;;;;25.67;11.60;;;;;;;;;;5087696;28;20032;-48
2022/03/25 00:31:29;;;;;;;23.33;11.85;;;;;;;;;;5075270;28;20078;-47
2022/03/25 00:33:55;;;;;;;27.17;12.05;;;;;;;;;;5083108;28;20523;-48
2022/03/25 00:36:23;;;;;;;25.50;11.65;;;;;;;;;;5089628;28;20089;-48
2022/03/25 00:38:49;;;;;;;19.88;11.13;;;;;;;;;;5085313;28;20055;-47
2022/03/25 00:41:16;;;;;;;25.33;10.90;;;;;;;;;;5086008;28;20031;-47
2022/03/25 00:43:42;;;;;;;24.13;10.93;;;;;;;;;;5091805;28;20024;-47
2022/03/25 00:46:11;;;;;;;26.17;11.73;;;;;;;;;;5091823;28;20020;-47
2022/03/25 00:48:37;;;;;;;24.30;12.23;;;;;;;;;;5083273;28;20042;-48
2022/03/25 00:51:03;;;;;;;30.02;12.95;;;;;;;;;;5084922;28;20028;-47
2022/03/25 00:53:29;;;;;;;25.60;11.80;;;;;;;;;;5083096;28;20127;-47
2022/03/25 00:55:56;;;;;;;24.42;11.02;;;;;;;;;;5083950;28;20051;-47
2022/03/25 00:58:22;;;;;;;27.58;12.02;;;;;;;;;;5084473;28;20541;-47
2022/03/25 01:00:48;;;;;;;24.55;11.80;;;;;;;;;;5091106;28;20048;-48
2022/03/25 01:03:15;;;;;;;24.95;11.75;;;;;;;;;;5091595;28;20107;-48
2022/03/25 01:05:41;;;;;;;30.65;14.02;;;;;;;;;;5092459;28;20481;-50
2022/03/25 01:08:09;;;;;;;31.95;14.40;;;;;;;;;;5083039;28;20780;-48
2022/03/25 01:10:35;;;;;;;30.58;14.20;;;;;;;;;;5091293;28;20020;-47
2022/03/25 01:13:03;;;;;;;29.40;13.73;;;;;;;;;;5091311;28;20114;-48
2022/03/25 01:15:29;;;;;;;29.02;13.48;;;;;;;;;;5076227;28;20667;-47
2022/03/25 01:17:55;;;;;;;32.15;13.55;;;;;;;;;;5091228;28;20032;-47
2022/03/25 01:20:21;;;;;;;25.05;12.90;;;;;;;;;;5090615;28;20032;-46
2022/03/25 01:22:47;;;;;;;28.95;13.05;;;;;;;;;;5090711;28;20081;-47
2022/03/25 01:25:14;;;;;;;29.70;11.95;;;;;;;;;;5081053;28;20028;-47
2022/03/25 01:27:40;;;;;;;24.05;12.05;;;;;;;;;;5090804;28;20092;-48
2022/03/25 01:30:06;;;;;;;21.95;11.25;;;;;;;;;;5090042;28;20652;-47
2022/03/25 01:32:34;;;;;;;25.42;12.10;;;;;;;;;;5079159;28;20039;-47
2022/03/25 01:35:00;;;;;;;21.60;10.93;;;;;;;;;;5078558;28;20043;-47
2022/03/25 01:37:29;;;;;;;25.75;10.77;;;;;;;;;;5085714;28;20028;-48
2022/03/25 01:39:55;;;;;;;24.30;10.63;;;;;;;;;;5083333;28;20020;-50
2022/03/25 01:42:34;;;;;;;24.25;10.15;;;;;;;;;;5090857;28;20039;-51
2022/03/25 01:45:00;;;;;;;20.83;10.38;;;;;;;;;;5092135;28;20035;-49
2022/03/25 01:47:30;;;;;;;21.23;10.15;;;;;;;;;;5083748;28;20032;-47
2022/03/25 01:49:56;;;;;;;24.73;10.65;;;;;;;;;;5091772;28;20509;-50
2022/03/25 01:52:22;;;;;;;21.80;10.80;;;;;;;;;;5083208;28;20071;-47
2022/03/25 01:54:48;;;;;;;21.67;10.32;;;;;;;;;;5079841;28;20132;-48
2022/03/25 01:57:14;;;;;;;20.85;10.73;;;;;;;;;;5086444;28;20028;-50
2022/03/25 01:59:40;;;;;;;23.15;10.65;;;;;;;;;;5091576;28;20471;-50
2022/03/25 02:02:07;;;;;;;22.92;11.07;;;;;;;;;;5093768;28;20036;-47
2022/03/25 02:04:33;;;;;;;24.92;10.95;;;;;;;;;;5085503;28;20108;-47
2022/03/25 02:06:59;;;;;;;27.23;11.73;;;;;;;;;;5090736;28;20108;-47
2022/03/25 02:09:29;;;;;;;25.02;13.18;;;;;;;;;;5086941;28;20032;-47
2022/03/25 02:11:55;;;;;;;22.67;10.90;;;;;;;;;;5089673;28;20025;-47
2022/03/25 02:14:22;;;;;;;23.92;10.57;;;;;;;;;;5094092;28;20024;-47
2022/03/25 02:16:48;;;;;;;21.42;10.00;;;;;;;;;;5094896;28;20028;-47
2022/03/25 02:19:19;;;;;;;22.08;11.18;;;;;;;;;;5094634;28;20027;-51
2022/03/25 02:21:47;;;;;;;25.60;11.40;;;;;;;;;;5086839;28;20024;-47
2022/03/25 02:24:13;;;;;;;25.10;11.63;;;;;;;;;;5081914;28;20039;-49
2022/03/25 02:26:40;;;;;;;23.17;12.38;;;;;;;;;;5090168;28;20044;-47
2022/03/25 02:29:07;;;;;;;23.98;12.43;;;;;;;;;;5086172;28;20095;-48
2022/03/25 02:31:33;;;;;;;22.58;11.05;;;;;;;;;;5089978;28;20025;-47
2022/03/25 02:34:03;;;;;;;30.50;12.82;;;;;;;;;;5074689;28;20521;-49
2022/03/25 02:36:30;;;;;;;25.10;12.43;;;;;;;;;;5092814;28;20031;-51
2022/03/25 02:38:56;;;;;;;22.95;11.07;;;;;;;;;;5086223;28;20507;-47
2022/03/25 02:41:22;;;;;;;24.75;11.73;;;;;;;;;;5089655;28;20028;-47
2022/03/25 02:43:48;;;;;;;24.55;11.70;;;;;;;;;;5090059;28;20036;-48
2022/03/25 02:46:14;;;;;;;25.77;12.82;;;;;;;;;;5081945;28;20353;-49
2022/03/25 02:48:40;;;;;;;26.70;11.23;;;;;;;;;;5093927;28;20028;-48
2022/03/25 02:51:06;;;;;;;24.98;11.73;;;;;;;;;;5081366;28;20032;-51
2022/03/25 02:53:32;;;;;;;24.17;11.68;;;;;;;;;;5090620;28;20051;-48
2022/03/25 02:55:58;;;;;;;22.55;11.40;;;;;;;;;;5085014;28;20380;-49
2022/03/25 02:58:25;;;;;;;25.02;11.82;;;;;;;;;;5084013;28;20468;-51
2022/03/25 03:00:51;;;;;;;25.08;11.80;;;;;;;;;;5092957;28;20040;-47
2022/03/25 03:03:17;;;;;;;23.77;12.15;;;;;;;;;;5087050;28;20085;-47
2022/03/25 03:05:43;;;;;;;25.88;11.35;;;;;;;;;;5093779;28;20118;-46
2022/03/25 03:08:09;;;;;;;20.48;10.70;;;;;;;;;;5093878;28;20028;-47
2022/03/25 03:10:35;;;;;;;24.73;11.10;;;;;;;;;;5093480;28;20494;-50
2022/03/25 03:13:02;;;;;;;26.27;12.23;;;;;;;;;;5082946;28;20087;-48
2022/03/25 03:15:28;;;;;;;20.60;10.70;;;;;;;;;;5080765;28;20032;-47
2022/03/25 03:17:54;;;;;;;21.77;11.57;;;;;;;;;;5091300;28;20384;-48
2022/03/25 03:20:20;;;;;;;24.10;12.27;;;;;;;;;;5076063;28;20048;-48
2022/03/25 03:22:47;;;;;;;24.33;12.00;;;;;;;;;;5086844;28;20024;-48
2022/03/25 03:25:13;;;;;;;30.58;11.98;;;;;;;;;;5084116;28;20163;-47
2022/03/25 03:27:39;;;;;;;24.23;11.45;;;;;;;;;;5093598;28;20020;-47
2022/03/25 03:30:07;;;;;;;27.67;12.15;;;;;;;;;;5075751;28;20031;-52
2022/03/25 03:32:33;;;;;;;30.17;13.85;;;;;;;;;;5075731;28;20043;-48
2022/03/25 03:34:59;;;;;;;23.17;11.45;;;;;;;;;;5087307;28;20468;-49
2022/03/25 03:37:25;;;;;;;21.73;11.32;;;;;;;;;;5074808;28;20067;-48
2022/03/25 03:39:51;;;;;;;25.67;11.93;;;;;;;;;;5092676;28;20028;-46
2022/03/25 03:42:17;;;;;;;29.02;12.85;;;;;;;;;;5092981;28;20031;-48
2022/03/25 03:44:43;;;;;;;26.55;12.07;;;;;;;;;;5091100;28;20024;-46
2022/03/25 03:47:10;;;;;;;26.70;11.50;;;;;;;;;;5083221;28;20056;-46
2022/03/25 03:49:37;;;;;;;28.92;12.82;;;;;;;;;;5083213;28;20039;-48
2022/03/25 03:52:04;;;;;;;25.48;11.77;;;;;;;;;;5092784;28;20020;-46
2022/03/25 03:54:30;;;;;;;27.15;11.95;;;;;;;;;;5092680;28;20408;-47
2022/03/25 03:56:56;;;;;;;22.45;10.93;;;;;;;;;;5090499;28;20383;-48
2022/03/25 03:59:22;;;;;;;23.00;11.02;;;;;;;;;;5089181;28;20032;-49
2022/03/25 04:01:48;;;;;;;28.27;11.75;;;;;;;;;;5082549;28;20032;-48
2022/03/25 04:04:14;;;;;;;24.38;12.05;;;;;;;;;;5092402;28;20020;-46
2022/03/25 04:06:40;;;;;;;26.75;12.48;;;;;;;;;;5087216;28;20495;-49
2022/03/25 04:09:06;;;;;;;28.35;11.65;;;;;;;;;;5092322;28;20028;-46
2022/03/25 04:11:32;;;;;;;26.13;11.73;;;;;;;;;;5092145;28;20028;-46
2022/03/25 04:13:58;;;;;;;26.73;12.55;;;;;;;;;;5092693;28;20492;-47
2022/03/25 04:16:24;;;;;;;25.63;12.20;;;;;;;;;;5089124;28;20376;-48
2022/03/25 04:18:50;;;;;;;24.23;11.85;;;;;;;;;;5084299;28;20108;-48
2022/03/25 04:21:16;;;;;;;24.90;11.57;;;;;;;;;;5074125;28;20033;-47
2022/03/25 04:23:42;;;;;;;27.23;12.25;;;;;;;;;;5087887;28;20077;-47
2022/03/25 04:26:08;;;;;;;23.55;12.25;;;;;;;;;;5089875;28;20100;-48
2022/03/25 04:28:34;;;;;;;26.42;11.90;;;;;;;;;;5090215;28;20073;-47
2022/03/25 04:31:00;;;;;;;27.77;13.35;;;;;;;;;;5079295;28;20035;-47
2022/03/25 04:33:26;;;;;;;27.70;13.60;;;;;;;;;;5080995;28;20028;-46
2022/03/25 04:35:52;;;;;;;26.40;11.93;;;;;;;;;;5082218;28;20461;-47
2022/03/25 04:38:18;;;;;;;27.45;12.93;;;;;;;;;;5083226;28;20032;-48
2022/03/25 04:40:44;;;;;;;24.35;12.38;;;;;;;;;;5091419;28;20039;-48
2022/03/25 04:43:10;;;;;;;26.80;12.70;;;;;;;;;;5087101;28;20032;-47
2022/03/25 04:45:37;;;;;;;23.60;11.90;;;;;;;;;;5081365;28;20460;-48
2022/03/25 04:48:04;;;;;;;26.60;11.90;;;;;;;;;;5085407;28;20028;-47
2022/03/25 04:50:30;;;;;;;25.42;12.45;;;;;;;;;;5083982;28;20025;-48
2022/03/25 04:52:56;;;;;;;26.27;12.75;;;;;;;;;;5083431;28;20101;-48
2022/03/25 04:55:22;;;;;;;26.75;12.13;;;;;;;;;;5078813;28;20032;-48
2022/03/25 04:57:48;;;;;;;24.35;10.55;;;;;;;;;;5085476;28;20043;-46
2022/03/25 05:00:15;;;;;;;24.83;11.77;;;;;;;;;;5082509;28;20074;-47
2022/03/25 05:02:41;;;;;;;24.15;11.50;;;;;;;;;;5087105;28;20082;-47
2022/03/25 05:05:08;;;;;;;26.60;12.57;;;;;;;;;;5084771;28;20063;-50
2022/03/25 05:07:34;;;;;;;27.70;13.13;;;;;;;;;;5084021;28;20522;-48
2022/03/25 05:10:01;;;;;;;29.60;13.80;;;;;;;;;;5073834;28;20526;-47
2022/03/25 05:12:27;;;;;;;29.67;13.00;;;;;;;;;;5085604;28;20028;-47
2022/03/25 05:14:54;;;;;;;28.60;13.57;;;;;;;;;;5084121;28;20469;-48
2022/03/25 05:17:20;;;;;;;28.00;12.90;;;;;;;;;;5081142;28;20027;-52
2022/03/25 05:19:46;;;;;;;28.55;13.30;;;;;;;;;;5082316;28;20035;-47
2022/03/25 05:22:13;;;;;;;30.60;13.60;;;;;;;;;;5085565;28;20085;-47
2022/03/25 05:24:39;;;;;;;26.08;12.45;;;;;;;;;;5087470;28;20421;-50
2022/03/25 05:27:05;;;;;;;31.17;13.77;;;;;;;;;;5079988;28;20059;-47
2022/03/25 05:29:31;;;;;;;29.30;13.43;;;;;;;;;;5075211;28;20522;-48
2022/03/25 05:31:57;;;;;;;28.42;12.88;;;;;;;;;;5087649;28;20028;-48
2022/03/25 05:34:23;;;;;;;30.73;13.45;;;;;;;;;;5087519;28;20546;-47
2022/03/25 05:36:49;;;;;;;27.05;12.50;;;;;;;;;;5076979;28;20028;-48
2022/03/25 05:39:15;;;;;;;32.78;13.80;;;;;;;;;;5088219;28;20120;-48
2022/03/25 05:41:42;;;;;;;31.58;14.40;;;;;;;;;;5083521;28;20109;-47
2022/03/25 05:44:08;;;;;;;34.88;14.30;;;;;;;;;;5084976;28;20028;-47
2022/03/25 05:46:34;;;;;;;31.45;14.18;;;;;;;;;;5084491;28;20472;-47
2022/03/25 05:49:01;;;;;;;30.77;14.68;;;;;;;;;;5089383;28;20062;-51
2022/03/25 05:51:27;;;;;;;35.08;14.25;;;;;;;;;;5083191;28;20097;-48
2022/03/25 05:53:53;;;;;;;29.60;14.07;;;;;;;;;;5081833;28;20436;-48
2022/03/25 05:56:20;;;;;;;30.08;14.38;;;;;;;;;;5089755;28;20031;-47
2022/03/25 05:58:46;;;;;;;34.70;13.43;;;;;;;;;;5077259;28;20028;-47
2022/03/25 06:01:13;;;;;;;30.80;14.90;;;;;;;;;;5081473;28;20386;-47
2022/03/25 06:03:39;;;;;;;33.83;16.80;;;;;;;;;;5085382;28;20110;-49
2022/03/25 06:06:05;;;;;;;29.55;14.98;;;;;;;;;;5093883;28;20435;-47
2022/03/25 06:08:32;;;;;;;34.15;15.57;;;;;;;;;;5093347;28;20085;-47
2022/03/25 06:10:59;;;;;;;36.45;16.35;;;;;;;;;;5093347;28;20034;-47
2022/03/25 06:13:26;;;;;;;30.15;14.30;;;;;;;;;;5082490;28;20046;-46
2022/03/25 06:15:52;;;;;;;30.98;14.90;;;;;;;;;;5094707;28;20035;-47
2022/03/25 06:18:18;;;;;;;30.45;14.70;;;;;;;;;;5091447;28;20107;-47
2022/03/25 06:20:44;;;;;;;33.55;14.07;;;;;;;;;;5087274;28;20035;-46
2022/03/25 06:23:10;;;;;;;27.95;14.38;;;;;;;;;;5089720;28;20028;-48
2022/03/25 06:25:36;;;;;;;27.75;13.45;;;;;;;;;;5084053;28;20107;-47
2022/03/25 06:28:07;;;;;;;28.48;13.95;;;;;;;;;;5084383;28;20350;-48
2022/03/25 06:30:34;;;;;;;26.90;12.10;;;;;;;;;;5088862;28;20034;-48
2022/03/25 06:33:01;;;;;;;26.45;14.15;;;;;;;;;;5087424;28;20024;-48
2022/03/25 06:35:27;;;;;;;23.33;12.68;;;;;;;;;;5093027;28;20036;-50
2022/03/25 06:37:53;;;;;;;30.33;13.60;;;;;;;;;;5084962;28;20035;-47
2022/03/25 06:40:20;;;;;;;26.17;12.43;;;;;;;;;;5084771;28;20039;-47
2022/03/25 06:42:46;;;;;;;25.70;12.50;;;;;;;;;;5091119;28;20032;-47
2022/03/25 06:45:14;;;;;;;27.33;13.52;;;;;;;;;;5088014;28;20044;-48
2022/03/25 06:47:40;;;;;;;27.17;13.15;;;;;;;;;;5085034;28;20445;-49
2022/03/25 06:50:07;;;;;;;27.05;12.88;;;;;;;;;;5093193;28;20103;-47
2022/03/25 06:52:34;;;;;;;27.80;12.75;;;;;;;;;;5091512;28;20020;-47
2022/03/25 06:55:00;;;;;;;31.13;13.90;;;;;;;;;;5085989;28;20044;-47
2022/03/25 06:57:26;;;;;;;24.80;13.88;;;;;;;;;;5091797;28;20062;-46
2022/03/25 06:59:52;;;;;;;31.83;13.23;;;;;;;;;;5078297;28;21729;-46
2022/03/25 07:02:18;;;;;;;29.40;14.05;;;;;;;;;;5087809;28;20472;-48
2022/03/25 07:04:45;;;;;;;32.45;14.38;;;;;;;;;;5079776;28;20365;-49
2022/03/25 07:07:11;;;;;;;30.58;13.75;;;;;;;;;;5089747;28;20499;-48
2022/03/25 07:09:37;;;;;;;27.73;12.38;;;;;;;;;;5078602;28;20024;-48
2022/03/25 07:12:04;;;;;;;27.63;12.65;;;;;;;;;;5086625;28;20032;-51
2022/03/25 07:14:30;;;;;;;27.88;13.57;;;;;;;;;;5089791;28;20118;-47
2022/03/25 07:16:56;;;;;;;29.58;12.27;;;;;;;;;;5093098;28;20102;-47
2022/03/25 07:19:25;;;;;;;26.75;12.60;;;;;;;;;;5077033;28;20034;-47
2022/03/25 07:21:51;;;;;;;24.67;13.43;;;;;;;;;;5082617;28;20123;-46
2022/03/25 07:24:17;;;;;;;26.23;13.27;;;;;;;;;;5074081;28;20342;-47
2022/03/25 07:26:43;;;;;;;24.73;12.68;;;;;;;;;;5078610;28;20392;-50
2022/03/25 07:29:10;;;;;;;24.92;11.80;;;;;;;;;;5087113;28;20024;-47
2022/03/25 07:31:36;;;;;;;26.73;12.13;;;;;;;;;;5088081;28;20028;-51
2022/03/25 07:34:02;;;;;;;31.80;13.88;;;;;;;;;;5084820;28;20035;-47
2022/03/25 07:36:28;;;;;;;28.30;12.50;;;;;;;;;;5090505;28;20028;-48
2022/03/25 07:38:54;;;;;;;28.23;12.27;;;;;;;;;;5076067;28;20107;-50
2022/03/25 07:41:21;;;;;;;31.70;13.05;;;;;;;;;;5080072;28;20526;-49
2022/03/25 07:43:47;;;;;;;32.75;13.15;;;;;;;;;;5088998;28;20055;-49
2022/03/25 07:46:13;;;;;;;29.00;12.90;;;;;;;;;;5085909;28;20024;-47
2022/03/25 07:48:39;;;;;;;27.77;12.95;;;;;;;;;;5091406;28;20020;-47
2022/03/25 07:51:07;;;;;;;29.83;12.82;;;;;;;;;;5081018;28;20476;-51
2022/03/25 07:53:33;;;;;;;28.52;13.45;;;;;;;;;;5091963;28;20475;-47
2022/03/25 07:56:00;;;;;;;31.48;13.10;;;;;;;;;;5084413;28;20073;-47
2022/03/25 07:58:26;;;;;;;30.48;12.18;;;;;;;;;;5087085;28;20032;-48
2022/03/25 08:00:52;;;;;;;30.30;13.38;;;;;;;;;;5092625;28;20529;-50
2022/03/25 08:03:21;;;;;;;26.05;12.40;;;;;;;;;;5092174;28;20032;-48
2022/03/25 08:05:48;;;;;;;28.67;13.13;;;;;;;;;;5087180;28;20376;-48
2022/03/25 08:08:16;;;;;;;30.17;13.20;;;;;;;;;;5086778;28;20024;-47
2022/03/25 08:10:42;;;;;;;24.98;11.75;;;;;;;;;;5082053;28;20036;-47
2022/03/25 08:13:09;;;;;;;25.98;12.07;;;;;;;;;;5074951;28;20025;-48
2022/03/25 08:15:36;;;;;;;29.08;12.25;;;;;;;;;;5075246;28;20044;-47
2022/03/25 08:18:03;;;;;;;34.45;12.90;;;;;;;;;;5085931;28;20038;-47
2022/03/25 08:20:33;;;;;;;29.80;12.82;;;;;;;;;;5079893;28;20040;-47
2022/03/25 08:23:00;;;;;;;29.77;13.05;;;;;;;;;;5084340;28;20083;-47
2022/03/25 08:28:12;;;;;;;26.60;12.35;;;;;;;;;;5080537;28;20490;-47
2022/03/25 08:30:38;;;;;;;29.65;12.82;;;;;;;;;;5077359;28;20162;-49
2022/03/25 08:33:05;;;;;;;31.10;13.30;;;;;;;;;;5086826;28;20807;-47
2022/03/25 08:35:31;;;;;;;30.65;12.38;;;;;;;;;;5079821;28;20020;-47
2022/03/25 08:37:57;;;;;;;33.85;13.02;;;;;;;;;;5081919;28;20063;-48
2022/03/25 08:40:24;;;;;;;27.40;11.95;;;;;;;;;;5080012;28;20033;-47
2022/03/25 08:42:50;;;;;;;26.50;12.38;;;;;;;;;;5090391;28;20479;-49
2022/03/25 08:45:17;;;;;;;26.00;12.40;;;;;;;;;;5087623;28;20103;-48
2022/03/25 08:47:43;;;;;;;38.83;13.73;;;;;;;;;;5085183;28;20028;-47
2022/03/25 08:50:12;;;;;;;37.20;14.13;;;;;;;;;;5082592;28;20025;-47
2022/03/25 08:52:38;;;;;;;35.22;13.95;;;;;;;;;;5090121;28;20031;-49
2022/03/25 08:55:04;;;;;;;29.40;13.60;;;;;;;;;;5092154;28;20096;-49
2022/03/25 08:57:30;;;;;;;33.80;14.30;;;;;;;;;;5091737;28;20093;-50
2022/03/25 08:59:56;;;;;;;31.30;13.88;;;;;;;;;;5081092;28;20472;-49
2022/03/25 09:02:22;;;;;;;38.33;14.43;;;;;;;;;;5082320;28;20024;-48
2022/03/25 09:04:48;;;;;;;28.73;12.68;;;;;;;;;;5091339;28;20016;-47
2022/03/25 09:07:15;;;;;;;31.02;14.20;;;;;;;;;;5091228;28;20016;-49
2022/03/25 09:09:41;;;;;;;33.10;13.77;;;;;;;;;;5085036;28;20039;-49
2022/03/25 09:12:08;;;;;;;37.30;14.82;;;;;;;;;;5094956;28;20044;-48
2022/03/25 09:14:34;;;;;;;32.28;14.40;;;;;;;;;;5095559;28;20039;-48
2022/03/25 09:17:00;;;;;;;29.35;14.30;;;;;;;;;;5094884;28;20024;-49
2022/03/25 09:19:26;;;;;;;33.53;15.13;;;;;;;;;;5086037;28;20477;-50
2022/03/25 09:21:52;;;;;;;34.75;14.65;;;;;;;;;;5093842;28;20028;-49
2022/03/25 09:24:19;;;;;;;36.92;15.57;;;;;;;;;;5086784;28;20086;-49
2022/03/25 09:26:45;;;;;;;32.22;14.73;;;;;;;;;;5085544;28;20059;-45
2022/03/25 09:29:11;;;;;;;28.80;13.60;;;;;;;;;;5080728;28;20063;-49
2022/03/25 09:31:38;;;;;;;34.15;14.63;;;;;;;;;;5094448;28;20616;-48
2022/03/25 09:36:49;;;;;;;34.88;14.75;;;;;;;;;;5093836;28;20400;-47
2022/03/25 09:39:15;;;;;;;38.75;14.65;;;;;;;;;;5095719;28;20024;-48
2022/03/25 09:41:41;;;;;;;34.92;15.88;;;;;;;;;;5093105;28;20024;-51
2022/03/25 09:44:08;;;;;;;31.38;15.25;;;;;;;;;;5095438;28;20502;-47
2022/03/25 09:46:41;;;;;;;32.83;15.13;;;;;;;;;;5095608;28;20034;-49
2022/03/25 09:49:07;;;;;;;38.15;14.70;;;;;;;;;;5094297;28;20355;-51
2022/03/25 09:51:33;;;;;;;33.42;15.77;;;;;;;;;;5084255;28;20036;-46
2022/03/25 09:53:59;;;;;;;35.70;15.95;;;;;;;;;;5091594;28;20044;-45
2022/03/25 09:56:25;;;;;;;39.30;16.88;;;;;;;;;;5095480;28;20028;-47
2022/03/25 09:58:51;;;;;;;37.45;16.60;;;;;;;;;;5095175;28;20095;-46
2022/03/25 10:01:17;;;;;;;35.35;16.48;;;;;;;;;;5085725;28;20028;-45
2022/03/25 10:03:43;;;;;;;32.33;15.70;;;;;;;;;;5092741;28;20035;-45
2022/03/25 10:06:14;;;;;;;37.00;16.13;;;;;;;;;;5095593;28;20059;-49
2022/03/25 10:08:40;;;;;;;30.77;15.30;;;;;;;;;;5095135;28;20024;-47
2022/03/25 10:11:20;;;;;;;32.88;15.93;;;;;;;;;;5086414;28;20075;-51
2022/03/25 10:13:46;;;;;;;29.60;14.25;;;;;;;;;;5095515;28;20412;-48
2022/03/25 10:16:25;;;;;;;31.02;14.80;;;;;;;;;;5077511;28;20025;-48
2022/03/25 10:18:56;;;;;;;35.63;16.08;;;;;;;;;;5082912;28;20034;-49
2022/03/25 10:21:22;;;;;;;33.33;16.15;;;;;;;;;;5094209;28;20063;-47
2022/03/25 10:23:48;;;;;;;31.73;15.30;;;;;;;;;;5090852;28;20029;-46
2022/03/25 10:26:14;;;;;;;35.22;15.73;;;;;;;;;;5085288;28;20469;-50
2022/03/25 10:28:41;;;;;;;31.15;15.25;;;;;;;;;;5095194;28;20039;-46
2022/03/25 10:31:11;;;;;;;36.50;16.63;;;;;;;;;;5079877;28;20056;-46
2022/03/25 10:33:43;;;;;;;38.65;17.02;;;;;;;;;;5083539;28;20020;-48
2022/03/25 10:36:10;;;;;;;30.75;15.65;;;;;;;;;;5084181;28;20400;-46
2022/03/25 10:38:42;;;;;;;30.52;15.02;;;;;;;;;;5095428;28;20436;-49
2022/03/25 10:41:09;;;;;;;38.70;16.55;;;;;;;;;;5094466;28;20103;-49
2022/03/25 10:43:35;;;;;;;32.72;15.60;;;;;;;;;;5086991;28;20106;-48
2022/03/25 10:46:01;;;;;;;30.98;16.20;;;;;;;;;;5081488;28;20468;-46
2022/03/25 10:48:28;;;;;;;34.58;17.25;;;;;;;;;;5094653;28;20028;-51
2022/03/25 10:51:01;;;;;;;32.25;16.17;;;;;;;;;;5094391;28;20503;-48
2022/03/25 10:53:29;;;;;;;42.35;17.88;;;;;;;;;;5095102;28;20044;-49
2022/03/25 10:55:56;;;;;;;32.97;16.30;;;;;;;;;;5084211;28;20081;-49
2022/03/25 10:58:22;;;;;;;34.45;16.52;;;;;;;;;;5084638;28;20098;-47
2022/03/25 11:00:49;;;;;;;30.83;15.25;;;;;;;;;;5093341;28;20107;-47
2022/03/25 11:03:16;;;;;;;34.17;15.60;;;;;;;;;;5093703;28;20058;-47
2022/03/25 11:05:43;;;;;;;28.67;14.25;;;;;;;;;;5087512;28;20036;-47
2022/03/25 11:08:09;;;;;;;35.05;16.15;;;;;;;;;;5094887;28;20089;-47
2022/03/25 11:10:35;;;;;;;37.15;16.35;;;;;;;;;;5094498;28;20024;-50
2022/03/25 11:13:02;;;;;;;28.73;13.88;;;;;;;;;;5094237;28;20023;-47
2022/03/25 11:15:30;;;;;;;32.33;13.95;;;;;;;;;;5082187;28;20036;-47
2022/03/25 11:17:56;;;;;;;25.92;12.80;;;;;;;;;;5094582;28;20020;-48
2022/03/25 11:20:24;;;;;;;29.10;12.90;;;;;;;;;;5094516;28;20026;-48
2022/03/25 11:22:52;;;;;;;26.13;12.25;;;;;;;;;;5093954;28;20516;-47
2022/03/25 11:25:21;;;;;;;28.92;12.63;;;;;;;;;;5084482;28;20388;-46
2022/03/25 11:27:48;;;;;;;22.80;11.95;;;;;;;;;;5093599;28;20028;-47
2022/03/25 11:30:16;;;;;;;23.17;12.07;;;;;;;;;;5090934;28;20453;-49
2022/03/25 11:33:09;;;;;;;22.92;10.80;;;;;;;;;;5078038;28;20016;-47
2022/03/25 11:35:37;;;;;;;23.65;11.82;;;;;;;;;;5081490;28;20086;-49
2022/03/25 11:38:12;;;;;;;25.70;12.75;;;;;;;;;;5093701;28;20028;-51
2022/03/25 11:40:39;;;;;;;27.95;11.52;;;;;;;;;;5094169;28;20029;-47
2022/03/25 11:43:28;;;;;;;24.67;12.27;;;;;;;;;;5087164;28;20752;-50
2022/03/25 11:46:00;;;;;;;29.38;11.63;;;;;;;;;;5077248;28;20115;-47
2022/03/25 11:48:26;;;;;;;21.20;10.05;;;;;;;;;;5082701;28;20111;-48
2022/03/25 11:50:52;;;;;;;23.08;10.68;;;;;;;;;;5093584;28;20553;-46
2022/03/25 11:53:24;;;;;;;21.27;11.25;;;;;;;;;;5093393;28;20559;-47
2022/03/25 11:56:01;;;;;;;20.38;11.00;;;;;;;;;;5061394;28;20427;-49
2022/03/25 11:58:31;;;;;;;24.88;11.68;;;;;;;;;;5069978;28;20024;-49
2022/03/25 12:01:01;;;;;;;23.30;12.02;;;;;;;;;;5070126;28;20529;-47
2022/03/25 12:03:59;;;;;;;22.13;10.65;;;;;;;;;;5067398;28;20093;-47
2022/03/25 12:06:26;;;;;;;18.08;9.85;;;;;;;;;;5034369;28;20084;-49
2022/03/25 12:08:55;;;;;;;22.90;9.93;;;;;;;;;;5068489;28;20032;-49
2022/03/25 12:11:41;;;;;;;17.90;8.85;;;;;;;;;;5068979;28;20025;-47
2022/03/25 12:14:08;;;;;;;23.27;10.70;;;;;;;;;;5069079;28;20029;-45
2022/03/25 12:16:49;;;;;;;20.73;10.82;;;;;;;;;;5066372;28;20385;-49
2022/03/25 12:19:44;;;;;;;18.67;10.18;;;;;;;;;;5061789;28;20025;-46
2022/03/25 12:22:19;;;;;;;15.40;7.70;;;;;;;;;;5063664;28;20124;-50
2022/03/25 12:24:45;;;;;;;18.98;8.93;;;;;;;;;;5065609;28;20033;-49
2022/03/25 12:27:11;;;;;;;16.98;7.53;;;;;;;;;;5049033;28;20025;-48
2022/03/25 12:29:44;;;;;;;18.65;8.00;;;;;;;;;;5065287;28;20103;-48
2022/03/25 12:32:14;;;;;;;14.30;7.55;;;;;;;;;;5059050;28;20029;-46
2022/03/25 12:34:59;;;;;;;19.55;8.25;;;;;;;;;;5055584;28;20024;-45
2022/03/25 12:37:28;;;;;;;15.43;7.38;;;;;;;;;;5068466;28;20066;-51
2022/03/25 12:39:54;;;;;;;15.88;7.30;;;;;;;;;;5068610;28;20021;-46
2022/03/25 12:42:20;;;;;;;13.80;6.78;;;;;;;;;;5067933;28;20358;-47
2022/03/25 12:44:55;;;;;;;12.32;7.15;;;;;;;;;;5056718;28;20037;-45
2022/03/25 12:47:31;;;;;;;14.48;7.22;;;;;;;;;;5050937;28;20058;-46
2022/03/25 12:49:58;;;;;;;15.32;6.68;;;;;;;;;;5057951;28;20025;-46
2022/03/25 12:52:25;;;;;;;16.52;6.72;;;;;;;;;;5054817;28;20021;-46
2022/03/25 12:54:51;;;;;;;11.82;5.97;;;;;;;;;;5067360;28;20127;-45
2022/03/25 12:57:17;;;;;;;11.95;6.45;;;;;;;;;;5053345;28;20135;-45
2022/03/25 12:59:53;;;;;;;12.07;5.20;;;;;;;;;;5068191;28;20063;-45
2022/03/25 13:02:19;;;;;;;10.38;5.45;;;;;;;;;;5055069;28;20102;-45
2022/03/25 13:04:45;;;;;;;12.95;5.97;;;;;;;;;;5048314;28;20034;-45
2022/03/25 13:07:13;;;;;;;12.98;5.43;;;;;;;;;;5039841;28;20416;-46
2022/03/25 13:09:55;;;;;;;11.27;5.90;;;;;;;;;;5052211;28;20108;-46
2022/03/25 13:12:30;;;;;;;14.02;5.22;;;;;;;;;;5039726;28;20033;-46
2022/03/25 13:14:56;;;;;;;15.85;6.63;;;;;;;;;;5054652;28;20028;-45
2022/03/25 13:17:27;;;;;;;11.00;5.90;;;;;;;;;;5054289;28;20461;-45
2022/03/25 13:19:57;;;;;;;10.38;6.18;;;;;;;;;;5050685;28;20032;-48
2022/03/25 13:22:23;;;;;;;12.48;5.97;;;;;;;;;;5054603;28;20393;-46
2022/03/25 13:24:53;;;;;;;11.68;6.03;;;;;;;;;;5045053;28;20059;-45
2022/03/25 13:27:19;;;;;;;13.52;6.15;;;;;;;;;;5054743;28;20124;-48
2022/03/25 13:29:45;;;;;;;12.75;5.80;;;;;;;;;;5053799;28;20053;-45
2022/03/25 13:32:12;;;;;;;10.80;5.07;;;;;;;;;;5034485;28;20029;-50
2022/03/25 13:34:38;;;;;;;10.43;4.90;;;;;;;;;;5051886;28;20369;-49
2022/03/25 13:37:04;;;;;;;13.63;5.15;;;;;;;;;;5054300;28;20021;-48
2022/03/25 13:39:34;;;;;;;11.23;5.63;;;;;;;;;;5049619;28;23550;-48
2022/03/25 13:42:09;;;;;;;14.27;5.53;;;;;;;;;;5045707;28;20441;-49
2022/03/25 13:44:36;;;;;;;12.18;5.20;;;;;;;;;;5040672;28;20487;-47
2022/03/25 13:47:09;;;;;;;15.70;6.32;;;;;;;;;;5044729;28;20025;-48
2022/03/25 13:49:34;;;;;;;14.13;6.93;;;;;;;;;;5037318;28;20108;-47
2022/03/25 13:52:07;;;;;;;14.93;6.55;;;;;;;;;;5046572;28;20028;-49
2022/03/25 13:54:33;;;;;;;15.68;6.63;;;;;;;;;;5051969;28;20460;-48
2022/03/25 13:57:04;;;;;;;12.23;6.78;;;;;;;;;;5053578;28;20044;-48
2022/03/25 13:59:35;;;;;;;16.15;7.32;;;;;;;;;;5053449;28;20020;-48
2022/03/25 14:02:01;;;;;;;15.40;7.53;;;;;;;;;;5035357;28;20087;-50
2022/03/25 14:04:28;;;;;;;13.38;6.72;;;;;;;;;;5044768;28;20033;-48
2022/03/25 14:06:55;;;;;;;11.13;6.05;;;;;;;;;;5036210;28;20355;-51
2022/03/25 14:09:25;;;;;;;12.32;7.68;;;;;;;;;;5045553;28;20087;-52
2022/03/25 14:11:51;;;;;;;15.82;8.63;;;;;;;;;;5049560;28;20052;-50
2022/03/25 14:14:34;;;;;;;19.95;8.75;;;;;;;;;;5037143;28;20037;-51
2022/03/25 14:17:00;;;;;;;18.77;8.05;;;;;;;;;;5036582;28;20390;-50
2022/03/25 14:19:26;;;;;;;17.13;8.02;;;;;;;;;;5038652;28;20030;-50
2022/03/25 14:21:53;;;;;;;18.38;8.25;;;;;;;;;;5046996;28;20025;-50
2022/03/25 14:24:32;;;;;;;13.85;7.75;;;;;;;;;;5047916;28;20065;-51
2022/03/25 14:27:08;;;;;;;16.17;8.52;;;;;;;;;;5044354;28;20394;-47